ROMMA est une association bénévole à but non lucratif. Votre soutien est indispensable : ADHERER à ROMMA ou FAIRE un DON

Die - (26, Drôme)

Diois (400 m)   Longitude: 5° 21' 55"E   Latitude: 44° 45' 16"N Station partenaire n°159
 

Détail journalier du     <<     >>

Température Precipitation Humidité Pression Vent Dir Rafale Dir. rafale Ensol.
Heure (°C) (mm) (%) (hPa) (km/h) (km/h) (min)
01:00 15.908510212ENE6SSO0
02:00 16.607910212E6S0
03:00 14.7085102105N0
04:00 12.8090102003N0
05:00 11.9092102005SO0
06:00 11.4093102005SO0
07:00 10.9094102003SO0
08:00 10.409410192SO5SO0
09:00 11.309610202SSO6SSO0
10:00 15.108810202N5SSO0
11:00 20.307010202ONO6NNE60
12:00 22.705910196ONO16ONO60
13:00 26.703810195E18ESE60
14:00 27.103310186SO21SO60
15:00 27.803510186ESE26SO60
16:00 27.903510176SO18SE60
17:00 25.904210178ONO19ONO60
18:00 010172SSE8SSE30
19:00 19.306310171ESE6NO0
20:00 15.807510182SE6SSO0
21:00 13.6083101803SSO0
22:00 12.408510191SSO6SSO0
23:00 11.708710201SSO6SSO0
minuit 10.4090102003SSO0

Graphique du 13-10-2019

 

Serveur OMMA